Time;durP1;ratioP1;P1;durP2;ratioP2;P2;SDS_P1;SDS_P2;PMS_P1;PMS_P2;Temp;Humidity;BMP_temperature;BMP_pressure;BME280_temperature;BME280_humidity;BME280_pressure;Samples;Min_cycle;Max_cycle;Signal;HPM_P1;HPM_P2
2022/09/27 00:00:20;;;;;;;4.05;1.80;;;19.50;55.10;;;;;;5072093;28;20222;-36
2022/09/27 00:02:51;;;;;;;3.67;1.65;;;19.50;55.30;;;;;;5071787;28;20233;-36
2022/09/27 00:05:22;;;;;;;2.85;1.63;;;19.60;55.50;;;;;;5077910;28;20205;-36
2022/09/27 00:07:52;;;;;;;3.20;1.88;;;19.60;55.60;;;;;;5071547;28;20201;-36
2022/09/27 00:10:25;;;;;;;3.08;2.10;;;19.70;55.70;;;;;;5073411;28;20217;-35
2022/09/27 00:12:56;;;;;;;3.40;1.90;;;19.70;55.70;;;;;;5071547;28;20251;-36
2022/09/27 00:15:27;;;;;;;3.47;1.83;;;19.80;55.80;;;;;;5071486;28;20619;-40
2022/09/27 00:17:57;;;;;;;3.33;2.15;;;19.80;55.80;;;;;;5072905;28;20205;-36
2022/09/27 00:20:28;;;;;;;5.90;2.00;;;19.90;55.90;;;;;;5091315;28;20222;-36
2022/09/27 00:22:59;;;;;;;5.03;2.17;;;20.00;56.10;;;;;;5105175;28;20719;-36
2022/09/27 00:25:31;;;;;;;4.60;2.20;;;20.00;56.60;;;;;;5089326;28;20202;-35
2022/09/27 00:28:02;;;;;;;4.85;2.08;;;20.00;56.10;;;;;;5090627;28;20198;-36
2022/09/27 00:30:33;;;;;;;5.22;2.17;;;20.10;56.20;;;;;;5092069;28;20586;-36
2022/09/27 00:33:03;;;;;;;3.97;2.50;;;20.10;56.10;;;;;;5087469;28;20186;-40
2022/09/27 00:35:34;;;;;;;3.97;2.35;;;20.20;56.20;;;;;;5091852;28;20201;-43
2022/09/27 00:38:05;;;;;;;4.03;2.05;;;20.20;56.20;;;;;;5111948;28;20193;-36
2022/09/27 00:40:37;;;;;;;4.38;2.13;;;20.30;56.30;;;;;;5112739;28;20232;-35
2022/09/27 00:43:18;;;;;;;5.03;1.90;;;20.30;56.30;;;;;;5071255;28;20222;-36
2022/09/27 00:45:54;;;;;;;3.80;2.10;;;20.30;56.30;;;;;;5073462;28;20206;-36
2022/09/27 00:48:28;;;;;;;3.75;2.00;;;20.40;56.40;;;;;;5091508;28;20221;-36
2022/09/27 00:51:04;;;;;;;3.65;2.10;;;20.40;56.30;;;;;;5092113;28;20681;-36
2022/09/27 00:53:41;;;;;;;4.30;2.13;;;20.50;56.30;;;;;;5091028;28;20562;-36
2022/09/27 00:56:18;;;;;;;4.95;2.25;;;20.60;56.40;;;;;;5091474;28;20251;-38
2022/09/27 00:58:53;;;;;;;5.78;2.42;;;20.60;56.30;;;;;;5091151;28;20674;-36
2022/09/27 01:01:24;;;;;;;3.22;2.05;;;20.60;56.50;;;;;;5090564;28;20773;-36
2022/09/27 01:03:58;;;;;;;5.07;2.53;;;20.70;56.50;;;;;;5090998;28;20222;-36
2022/09/27 01:06:29;;;;;;;4.55;2.30;;;20.70;56.40;;;;;;5090598;28;20232;-36
2022/09/27 01:09:00;;;;;;;4.93;2.35;;;20.80;56.40;;;;;;5073266;28;20202;-37
2022/09/27 01:11:44;;;;;;;4.95;2.20;;;20.80;56.30;;;;;;5082246;28;20293;-35
2022/09/27 01:14:48;;;;;;;3.40;2.10;;;20.90;56.40;;;;;;5090778;28;20198;-36
2022/09/27 01:17:32;;;;;;;3.30;2.30;;;20.90;56.20;;;;;;5058853;28;20213;-37
2022/09/27 01:20:31;;;;;;;4.45;2.13;;;21.00;56.10;;;;;;5091336;28;20214;-36
2022/09/27 01:23:20;;;;;;;3.95;2.40;;;21.00;56.00;;;;;;5090032;28;20275;-39
2022/09/27 01:26:07;;;;;;;5.22;2.20;;;21.00;55.90;;;;;;5090826;28;20201;-37
2022/09/27 01:28:58;;;;;;;3.08;2.13;;;21.10;55.90;;;;;;5090523;28;20198;-38
2022/09/27 01:31:35;;;;;;;4.07;2.22;;;21.10;55.90;;;;;;5090409;28;20214;-36
2022/09/27 01:34:10;;;;;;;2.63;1.75;;;21.20;55.80;;;;;;5090132;28;20201;-36
2022/09/27 01:36:53;;;;;;;4.35;2.10;;;21.20;55.90;;;;;;5090551;28;20212;-36
2022/09/27 01:39:43;;;;;;;2.70;2.05;;;21.20;55.80;;;;;;5089962;28;20194;-36
2022/09/27 01:42:18;;;;;;;3.38;2.00;;;21.20;55.60;;;;;;5091038;28;20239;-36
2022/09/27 01:44:53;;;;;;;3.38;1.73;;;21.30;55.50;;;;;;5078440;28;20232;-36
2022/09/27 01:47:31;;;;;;;3.92;2.00;;;21.30;55.50;;;;;;5071177;28;20205;-36
2022/09/27 01:50:06;;;;;;;3.10;2.20;;;21.40;55.50;;;;;;5072833;28;20232;-36
2022/09/27 01:52:40;;;;;;;4.75;1.90;;;21.40;55.40;;;;;;5090676;28;20204;-36
2022/09/27 01:55:16;;;;;;;4.00;2.13;;;21.40;55.30;;;;;;5090541;28;20739;-36
2022/09/27 01:57:52;;;;;;;3.00;2.05;;;21.50;55.30;;;;;;5090349;28;20835;-35
2022/09/27 02:00:22;;;;;;;5.55;2.30;;;21.50;55.20;;;;;;5089892;28;20214;-36
2022/09/27 02:03:00;;;;;;;4.35;2.05;;;21.50;55.20;;;;;;5090364;28;20224;-36
2022/09/27 02:05:35;;;;;;;3.05;1.95;;;21.60;55.30;;;;;;5090054;28;20197;-36
2022/09/27 02:08:10;;;;;;;4.07;2.00;;;21.60;55.30;;;;;;5088222;28;20194;-36
2022/09/27 02:10:44;;;;;;;4.00;1.90;;;21.60;55.10;;;;;;5085284;28;20214;-36
2022/09/27 02:13:21;;;;;;;4.57;2.13;;;21.70;55.10;;;;;;5069570;28;20198;-36
2022/09/27 02:15:59;;;;;;;4.50;2.20;;;21.70;54.90;;;;;;5089171;28;20198;-36
2022/09/27 02:18:40;;;;;;;3.30;2.05;;;21.70;54.80;;;;;;5090117;28;20193;-36
2022/09/27 02:21:16;;;;;;;3.83;1.70;;;21.80;54.70;;;;;;5090499;28;20218;-41
2022/09/27 02:23:50;;;;;;;2.65;1.75;;;21.80;54.30;;;;;;5087303;28;20221;-40
2022/09/27 02:26:24;;;;;;;2.28;1.50;;;21.90;54.10;;;;;;5074378;28;20186;-40
2022/09/27 02:29:01;;;;;;;2.95;1.60;;;21.90;53.70;;;;;;5090102;28;20201;-36
2022/09/27 02:31:31;;;;;;;2.33;1.60;;;21.90;53.40;;;;;;5090382;28;20548;-36
2022/09/27 02:34:07;;;;;;;4.00;1.50;;;22.00;53.20;;;;;;5089895;28;20209;-36
2022/09/27 02:36:39;;;;;;;2.25;1.40;;;22.00;53.00;;;;;;5093893;28;20194;-36
2022/09/27 02:39:10;;;;;;;2.65;1.55;;;22.00;52.90;;;;;;5094269;28;20202;-36
2022/09/27 02:41:41;;;;;;;1.55;1.40;;;22.10;52.90;;;;;;5094002;28;20222;-36
2022/09/27 02:44:15;;;;;;;1.42;1.25;;;22.10;52.80;;;;;;5086367;28;20654;-36
2022/09/27 02:47:08;;;;;;;3.88;1.63;;;22.10;52.60;;;;;;5072540;28;20205;-41
2022/09/27 02:49:55;;;;;;;1.92;1.33;;;22.20;52.40;;;;;;5073468;28;20202;-36
2022/09/27 02:52:37;;;;;;;2.15;1.20;;;22.20;52.30;;;;;;5072900;28;20202;-36
2022/09/27 02:55:16;;;;;;;2.95;1.42;;;22.20;52.10;;;;;;5073614;28;20952;-37
2022/09/27 02:57:58;;;;;;;1.52;1.27;;;22.30;52.20;;;;;;5073039;28;20201;-36
2022/09/27 03:00:37;;;;;;;2.25;1.40;;;22.30;51.90;;;;;;5076279;28;20208;-37
2022/09/27 03:03:12;;;;;;;1.40;1.30;;;22.40;52.00;;;;;;5079194;28;20221;-36
2022/09/27 03:05:48;;;;;;;1.33;1.20;;;22.40;51.90;;;;;;5093437;28;20209;-36
2022/09/27 03:08:19;;;;;;;1.70;1.27;;;22.40;52.10;;;;;;5093162;28;20197;-37
2022/09/27 03:10:50;;;;;;;2.50;1.40;;;22.50;52.20;;;;;;5091906;28;20217;-38
2022/09/27 03:13:21;;;;;;;1.45;1.35;;;22.50;52.20;;;;;;5072609;28;20286;-42
2022/09/27 03:15:52;;;;;;;1.52;1.33;;;22.60;52.20;;;;;;5093788;28;20205;-42
2022/09/27 03:18:22;;;;;;;1.50;1.38;;;22.60;52.10;;;;;;5093151;28;20571;-37
2022/09/27 03:20:55;;;;;;;1.20;1.10;;;22.60;52.10;;;;;;5093064;28;20216;-42
2022/09/27 03:23:26;;;;;;;1.75;1.00;;;22.60;51.90;;;;;;5093417;28;20225;-38
2022/09/27 03:25:57;;;;;;;3.08;1.55;;;22.70;51.90;;;;;;5093354;28;20194;-37
2022/09/27 03:28:28;;;;;;;2.15;1.40;;;22.70;51.90;;;;;;5093890;28;20194;-40
2022/09/27 03:30:59;;;;;;;1.75;1.33;;;22.80;51.90;;;;;;5092632;28;20214;-36
2022/09/27 03:33:30;;;;;;;4.30;1.42;;;22.80;52.00;;;;;;5093187;28;20205;-36
2022/09/27 03:36:03;;;;;;;1.88;1.40;;;22.80;51.90;;;;;;5092263;28;20279;-37
2022/09/27 03:38:33;;;;;;;2.00;1.33;;;22.90;52.00;;;;;;5093434;28;20638;-36
2022/09/27 03:41:04;;;;;;;2.95;1.42;;;22.90;52.00;;;;;;5092900;28;20222;-36
2022/09/27 03:43:35;;;;;;;2.35;1.40;;;22.90;52.00;;;;;;5090684;28;20232;-36
2022/09/27 03:46:06;;;;;;;4.10;1.40;;;22.90;52.10;;;;;;5071228;28;20195;-36
2022/09/27 03:48:37;;;;;;;2.75;1.55;;;23.00;52.00;;;;;;5071635;28;20190;-36
2022/09/27 03:51:11;;;;;;;1.67;1.33;;;23.00;52.10;;;;;;5072720;28;20227;-40
2022/09/27 03:53:41;;;;;;;3.22;1.58;;;23.00;52.20;;;;;;5072008;28;20815;-41
2022/09/27 03:56:12;;;;;;;2.25;1.65;;;23.00;52.30;;;;;;5072459;28;20643;-36
2022/09/27 03:58:43;;;;;;;2.05;1.48;;;23.00;52.40;;;;;;5072254;28;20199;-36
2022/09/27 04:01:14;;;;;;;2.53;1.60;;;23.10;52.40;;;;;;5072838;28;20293;-36
2022/09/27 04:03:45;;;;;;;2.67;1.50;;;23.10;52.40;;;;;;5083782;28;20268;-36
2022/09/27 04:06:17;;;;;;;1.65;1.20;;;23.10;52.40;;;;;;5092216;28;20216;-40
2022/09/27 04:08:48;;;;;;;3.25;1.63;;;23.10;52.40;;;;;;5092265;28;20194;-36
2022/09/27 04:11:19;;;;;;;2.05;1.52;;;23.10;52.40;;;;;;5092240;28;20232;-36
2022/09/27 04:13:50;;;;;;;1.58;1.40;;;23.10;52.40;;;;;;5092515;28;20209;-38
2022/09/27 04:16:21;;;;;;;2.13;1.50;;;23.10;52.40;;;;;;5089754;28;20194;-46
2022/09/27 04:18:51;;;;;;;5.30;1.63;;;23.10;52.30;;;;;;5072967;28;20198;-51
2022/09/27 04:21:24;;;;;;;1.77;1.40;;;23.10;48.90;;;;;;5072222;28;20704;-44
2022/09/27 04:23:55;;;;;;;2.03;1.00;;;23.10;46.10;;;;;;5086715;28;20217;-37
2022/09/27 04:26:26;;;;;;;2.10;1.17;;;23.00;46.00;;;;;;5091718;28;20205;-36
2022/09/27 04:28:57;;;;;;;3.38;1.45;;;23.00;46.40;;;;;;5091934;28;20198;-36
2022/09/27 04:31:28;;;;;;;1.75;1.33;;;22.90;46.90;;;;;;5091819;28;20237;-35
2022/09/27 04:33:58;;;;;;;3.58;1.50;;;22.90;47.60;;;;;;5091380;28;20216;-38
2022/09/27 04:36:30;;;;;;;2.47;1.38;;;22.80;47.80;;;;;;5092094;28;20653;-36
2022/09/27 04:39:02;;;;;;;2.92;1.42;;;22.80;48.20;;;;;;5091137;28;20198;-36
2022/09/27 04:41:34;;;;;;;2.95;1.30;;;22.80;48.20;;;;;;5092691;28;20673;-35
2022/09/27 04:44:05;;;;;;;2.25;1.27;;;22.80;49.50;;;;;;5085568;28;20257;-36
2022/09/27 04:46:36;;;;;;;3.35;1.80;;;22.70;49.40;;;;;;5071304;28;20199;-36
2022/09/27 04:49:07;;;;;;;2.15;1.55;;;22.80;49.70;;;;;;5071194;28;20225;-36
2022/09/27 04:51:39;;;;;;;1.95;1.45;;;22.70;49.60;;;;;;5070610;28;20590;-38
2022/09/27 04:54:10;;;;;;;3.10;1.50;;;22.70;49.70;;;;;;5071098;28;20202;-36
2022/09/27 04:56:41;;;;;;;3.95;1.90;;;22.70;49.90;;;;;;5071492;28;20194;-36
2022/09/27 04:59:12;;;;;;;4.13;1.73;;;22.70;49.70;;;;;;5070923;28;20226;-36
2022/09/27 05:01:44;;;;;;;4.35;2.20;;;22.70;49.70;;;;;;5071548;28;20225;-37
2022/09/27 05:04:14;;;;;;;4.32;1.88;;;22.70;49.70;;;;;;5087292;28;20233;-39
2022/09/27 05:06:47;;;;;;;3.95;1.50;;;22.70;49.50;;;;;;5091168;28;20222;-36
2022/09/27 05:09:18;;;;;;;3.55;1.90;;;22.70;49.50;;;;;;5090652;28;20207;-36
2022/09/27 05:11:48;;;;;;;2.72;1.90;;;22.70;49.50;;;;;;5076992;28;20210;-36
2022/09/27 05:14:19;;;;;;;2.88;1.75;;;22.70;49.60;;;;;;5078474;28;20225;-36
2022/09/27 05:16:51;;;;;;;2.38;1.52;;;22.70;49.90;;;;;;5091114;28;20284;-35
2022/09/27 05:19:22;;;;;;;3.42;1.85;;;22.70;50.00;;;;;;5091039;28;20233;-36
2022/09/27 05:21:54;;;;;;;4.18;1.90;;;22.70;50.10;;;;;;5090185;28;20218;-36
2022/09/27 05:24:26;;;;;;;3.08;1.75;;;22.70;50.30;;;;;;5090504;28;20222;-39
2022/09/27 05:26:57;;;;;;;2.58;1.70;;;22.70;50.20;;;;;;5090390;28;20562;-37
2022/09/27 05:29:28;;;;;;;2.90;1.98;;;22.70;50.40;;;;;;5091005;28;20194;-38
2022/09/27 05:31:58;;;;;;;3.15;1.98;;;22.60;50.30;;;;;;5090615;28;20225;-36
2022/09/27 05:34:31;;;;;;;3.17;1.77;;;22.60;50.30;;;;;;5090001;28;20558;-36
2022/09/27 05:37:03;;;;;;;2.60;1.80;;;22.70;50.30;;;;;;5091145;28;20234;-36
2022/09/27 05:39:34;;;;;;;4.40;2.15;;;22.60;50.20;;;;;;5090530;28;20218;-36
2022/09/27 05:42:07;;;;;;;4.53;2.28;;;22.60;50.10;;;;;;5091718;28;20221;-36
2022/09/27 05:44:38;;;;;;;3.15;1.77;;;22.60;50.10;;;;;;5079917;28;20272;-36
2022/09/27 05:47:09;;;;;;;1.98;1.60;;;22.60;50.60;;;;;;5070090;28;20206;-35
2022/09/27 05:49:40;;;;;;;3.03;1.70;;;22.60;50.50;;;;;;5070027;28;20574;-35
2022/09/27 05:52:12;;;;;;;2.45;1.85;;;22.60;50.60;;;;;;5071066;28;20763;-36
2022/09/27 05:54:43;;;;;;;3.42;2.10;;;22.60;50.60;;;;;;5071319;28;20199;-37
2022/09/27 05:57:14;;;;;;;2.78;1.55;;;22.50;50.50;;;;;;5070376;28;20218;-36
2022/09/27 05:59:45;;;;;;;3.40;1.90;;;22.50;50.70;;;;;;5070954;28;20194;-36
2022/09/27 06:02:17;;;;;;;2.97;1.70;;;22.50;50.70;;;;;;5070699;28;20248;-36
2022/09/27 06:04:47;;;;;;;2.50;1.60;;;22.50;50.70;;;;;;5070615;28;20227;-36
2022/09/27 06:07:20;;;;;;;2.17;1.90;;;22.50;50.70;;;;;;5070239;28;20205;-36
2022/09/27 06:09:51;;;;;;;2.30;1.65;;;22.50;50.70;;;;;;5070810;28;20199;-36
2022/09/27 06:12:21;;;;;;;2.78;1.70;;;22.50;50.80;;;;;;5092402;28;20675;-35
2022/09/27 06:14:52;;;;;;;2.75;1.63;;;22.40;51.40;;;;;;5094399;28;20208;-36
2022/09/27 06:17:23;;;;;;;3.45;1.65;;;22.40;50.90;;;;;;5094648;28;20194;-36
2022/09/27 06:19:53;;;;;;;2.58;1.45;;;22.40;50.90;;;;;;5094190;28;20221;-38
2022/09/27 06:22:26;;;;;;;2.67;1.63;;;22.40;51.00;;;;;;5094674;28;20194;-36
2022/09/27 06:24:57;;;;;;;4.75;1.88;;;22.40;51.00;;;;;;5093443;28;20268;-35
2022/09/27 06:27:27;;;;;;;2.20;1.65;;;22.40;51.00;;;;;;5094677;28;20194;-36
2022/09/27 06:29:58;;;;;;;2.95;1.77;;;22.40;51.10;;;;;;5093957;28;20195;-36
2022/09/27 06:32:29;;;;;;;1.88;1.35;;;22.40;51.10;;;;;;5094682;28;20201;-36
2022/09/27 06:35:00;;;;;;;3.45;1.70;;;22.30;51.00;;;;;;5094026;28;20198;-35
2022/09/27 06:37:32;;;;;;;2.13;1.60;;;22.30;51.00;;;;;;5094417;28;20198;-36
2022/09/27 06:40:03;;;;;;;1.70;1.60;;;22.30;51.10;;;;;;5093887;28;20194;-36
2022/09/27 06:42:34;;;;;;;2.03;1.50;;;22.30;51.20;;;;;;5094539;28;20198;-35
2022/09/27 06:45:05;;;;;;;3.15;1.58;;;22.30;51.20;;;;;;5093546;28;20232;-36
2022/09/27 06:47:39;;;;;;;4.40;2.20;;;22.20;51.10;;;;;;5091993;28;20651;-35
2022/09/27 06:50:12;;;;;;;3.58;1.67;;;22.20;51.30;;;;;;5093026;28;20224;-36
2022/09/27 06:52:50;;;;;;;2.75;1.60;;;22.20;51.30;;;;;;5092416;28;20244;-36
2022/09/27 06:55:20;;;;;;;2.17;1.70;;;22.20;51.30;;;;;;5073028;28;20201;-36
2022/09/27 07:00:37;;;;;;;2.08;1.58;;;22.20;51.30;;;;;;5074205;28;20222;-35
2022/09/27 07:03:08;;;;;;;2.88;1.50;;;22.20;51.40;;;;;;5080085;28;20658;-36
2022/09/27 07:05:40;;;;;;;2.20;1.50;;;22.20;51.30;;;;;;5093944;28;20214;-40
2022/09/27 07:08:13;;;;;;;2.95;1.50;;;22.10;51.40;;;;;;5093365;28;20208;-36
2022/09/27 07:10:44;;;;;;;3.38;1.83;;;22.10;51.40;;;;;;5089849;28;20218;-36
2022/09/27 07:13:15;;;;;;;2.63;1.85;;;22.10;51.40;;;;;;5093101;28;20571;-36
2022/09/27 07:15:46;;;;;;;1.60;1.50;;;22.10;51.50;;;;;;5093039;28;20202;-36
2022/09/27 07:18:16;;;;;;;2.42;1.67;;;22.10;51.50;;;;;;5093582;28;20250;-36
2022/09/27 07:20:47;;;;;;;2.22;1.60;;;22.00;51.50;;;;;;5093066;28;20578;-36
2022/09/27 07:23:20;;;;;;;2.80;1.55;;;22.00;51.50;;;;;;5092867;28;20281;-37
2022/09/27 07:25:50;;;;;;;3.03;1.60;;;22.00;51.50;;;;;;5092693;28;20229;-36
2022/09/27 07:28:21;;;;;;;1.42;1.33;;;22.00;51.50;;;;;;5092994;28;20194;-37
2022/09/27 07:30:56;;;;;;;1.90;1.65;;;22.00;51.50;;;;;;5092176;28;20669;-38
2022/09/27 07:33:27;;;;;;;1.85;1.58;;;22.00;51.50;;;;;;5092618;28;20196;-41
2022/09/27 07:35:58;;;;;;;2.47;1.70;;;21.90;51.60;;;;;;5072491;28;20206;-36
2022/09/27 07:38:31;;;;;;;2.60;1.70;;;21.90;51.70;;;;;;5072229;28;20210;-36
2022/09/27 07:41:06;;;;;;;2.67;1.45;;;21.90;51.70;;;;;;5082076;28;20264;-35
2022/09/27 07:43:37;;;;;;;1.98;1.63;;;21.80;51.70;;;;;;5075835;28;20237;-40
2022/09/27 07:46:08;;;;;;;2.10;1.50;;;21.80;51.80;;;;;;5092063;28;20218;-36
2022/09/27 07:48:38;;;;;;;1.98;1.67;;;21.80;51.80;;;;;;5072434;28;20642;-36
2022/09/27 07:51:10;;;;;;;1.80;1.42;;;21.70;51.70;;;;;;5072426;28;20211;-36
2022/09/27 07:53:43;;;;;;;2.05;1.60;;;21.70;51.80;;;;;;5071431;28;20199;-36
2022/09/27 07:56:14;;;;;;;2.10;1.45;;;21.70;51.80;;;;;;5071939;28;20205;-36
2022/09/27 07:58:44;;;;;;;2.08;1.52;;;21.70;51.80;;;;;;5074788;28;20225;-35
2022/09/27 08:01:15;;;;;;;2.20;1.63;;;21.70;51.80;;;;;;5088808;28;20214;-39
2022/09/27 08:03:46;;;;;;;1.83;1.55;;;21.60;51.70;;;;;;5092911;28;20190;-36
2022/09/27 08:06:17;;;;;;;1.52;1.40;;;21.60;51.80;;;;;;5092459;28;20577;-36
2022/09/27 08:08:50;;;;;;;2.10;1.63;;;21.60;51.80;;;;;;5092061;28;20198;-36
2022/09/27 08:11:21;;;;;;;2.95;1.88;;;21.60;51.90;;;;;;5096102;28;20205;-36
2022/09/27 08:13:53;;;;;;;2.33;1.45;;;21.50;51.90;;;;;;5078000;28;20201;-41
2022/09/27 08:16:24;;;;;;;2.92;1.70;;;21.50;52.00;;;;;;5071980;28;20203;-38
2022/09/27 08:18:54;;;;;;;2.50;1.50;;;21.50;52.00;;;;;;5072119;28;20209;-38
2022/09/27 08:21:25;;;;;;;2.80;1.80;;;21.40;52.00;;;;;;5071756;28;20230;-36
2022/09/27 08:23:58;;;;;;;2.17;1.65;;;21.40;52.10;;;;;;5088609;28;20197;-36
2022/09/27 08:26:30;;;;;;;1.90;1.70;;;21.40;52.20;;;;;;5091806;28;20276;-36
2022/09/27 08:29:01;;;;;;;2.78;1.88;;;21.40;52.20;;;;;;5091244;28;20589;-37
2022/09/27 08:31:31;;;;;;;1.63;1.52;;;21.40;52.20;;;;;;5091999;28;20297;-37
2022/09/27 08:34:02;;;;;;;1.70;1.55;;;21.40;52.20;;;;;;5091093;28;20209;-39
2022/09/27 08:36:34;;;;;;;2.45;1.42;;;21.40;52.20;;;;;;5091509;28;20209;-36
2022/09/27 08:39:07;;;;;;;1.75;1.65;;;21.40;52.20;;;;;;5090915;28;20706;-36
2022/09/27 08:41:42;;;;;;;3.15;1.67;;;21.30;52.20;;;;;;5091849;28;20218;-35
2022/09/27 08:44:21;;;;;;;1.98;1.50;;;21.30;52.20;;;;;;5091910;28;20208;-36
2022/09/27 08:47:00;;;;;;;1.92;1.70;;;21.30;52.30;;;;;;5091610;28;20208;-42
2022/09/27 08:49:36;;;;;;;2.30;1.75;;;21.20;52.30;;;;;;5091256;28;20261;-36
2022/09/27 08:52:09;;;;;;;2.85;1.70;;;21.20;52.30;;;;;;5091208;28;20990;-36
2022/09/27 08:54:42;;;;;;;1.83;1.63;;;21.20;52.30;;;;;;5091569;28;20205;-40
2022/09/27 08:57:15;;;;;;;2.10;1.83;;;21.20;52.30;;;;;;5091014;28;20680;-38
2022/09/27 08:59:49;;;;;;;3.03;2.05;;;21.20;52.30;;;;;;5091077;28;20285;-44
2022/09/27 09:02:23;;;;;;;1.70;1.60;;;21.10;52.40;;;;;;5090564;28;20218;-42
2022/09/27 09:04:57;;;;;;;2.20;1.45;;;21.10;52.30;;;;;;5071251;28;20645;-36
2022/09/27 09:07:48;;;;;;;2.60;1.42;;;21.10;52.40;;;;;;5074480;28;20194;-36
2022/09/27 09:13:34;;;;;;;2.03;1.60;;;21.10;52.30;;;;;;5073103;28;20652;-36
2022/09/27 09:16:10;;;;;;;3.88;1.52;;;21.10;52.40;;;;;;5071071;28;20285;-40
2022/09/27 09:18:59;;;;;;;1.65;1.40;;;21.00;52.40;;;;;;5070848;28;20556;-35
2022/09/27 09:21:36;;;;;;;2.03;1.80;;;20.90;52.40;;;;;;5070264;28;20222;-35
2022/09/27 09:24:34;;;;;;;2.67;1.65;;;20.90;52.40;;;;;;5070915;28;20202;-35
2022/09/27 09:27:13;;;;;;;1.98;1.50;;;20.90;52.50;;;;;;5078033;28;20198;-35
2022/09/27 09:30:04;;;;;;;2.45;1.73;;;20.90;52.50;;;;;;5090936;28;20190;-37
2022/09/27 09:32:45;;;;;;;2.33;2.00;;;20.90;52.50;;;;;;5089962;28;20198;-36
2022/09/27 09:35:20;;;;;;;1.67;1.58;;;20.80;52.40;;;;;;5091055;28;20194;-35
2022/09/27 09:37:54;;;;;;;3.38;2.00;;;20.80;52.40;;;;;;5090793;28;20205;-37
2022/09/27 09:40:28;;;;;;;2.25;1.98;;;20.80;52.40;;;;;;5090547;28;20689;-35
2022/09/27 09:43:05;;;;;;;2.38;1.58;;;20.80;52.40;;;;;;5090518;28;20201;-35
2022/09/27 09:45:40;;;;;;;2.97;1.83;;;20.80;52.40;;;;;;5074338;28;20225;-35
2022/09/27 09:48:18;;;;;;;2.05;1.70;;;20.70;52.40;;;;;;5074187;28;20194;-35
2022/09/27 09:50:52;;;;;;;2.58;1.80;;;20.70;52.50;;;;;;5074168;28;20745;-35
2022/09/27 09:53:32;;;;;;;2.90;1.90;;;20.70;52.60;;;;;;5074085;28;20190;-35
2022/09/27 09:56:07;;;;;;;2.72;1.80;;;20.70;52.60;;;;;;5074689;28;20194;-35
2022/09/27 09:58:49;;;;;;;1.95;1.70;;;20.60;52.70;;;;;;5074642;28;20198;-35
2022/09/27 10:01:22;;;;;;;2.83;1.77;;;20.60;52.60;;;;;;5077017;28;20207;-36
2022/09/27 10:03:55;;;;;;;1.85;1.65;;;20.60;52.60;;;;;;5087291;28;20190;-36
2022/09/27 10:06:27;;;;;;;2.13;1.80;;;20.60;52.60;;;;;;5094754;28;20227;-35
2022/09/27 10:08:58;;;;;;;1.73;1.58;;;20.50;52.60;;;;;;5094566;28;20586;-36
2022/09/27 10:11:33;;;;;;;2.10;1.85;;;20.50;52.60;;;;;;5094760;28;20218;-35
2022/09/27 10:14:07;;;;;;;1.83;1.73;;;20.50;52.60;;;;;;5094360;28;20201;-35
2022/09/27 10:16:38;;;;;;;2.53;1.80;;;20.50;52.60;;;;;;5094777;28;20196;-35
2022/09/27 10:19:10;;;;;;;1.80;1.58;;;20.40;52.70;;;;;;5091902;28;20194;-35
2022/09/27 10:21:44;;;;;;;1.73;1.60;;;20.40;52.70;;;;;;5073996;28;20708;-35
2022/09/27 10:24:16;;;;;;;3.20;2.00;;;20.40;52.70;;;;;;5074120;28;20198;-38
2022/09/27 10:26:50;;;;;;;2.15;1.95;;;20.30;52.70;;;;;;5074107;28;20222;-36
2022/09/27 10:29:30;;;;;;;1.88;1.70;;;20.30;53.30;;;;;;5074579;28;20211;-36
2022/09/27 10:32:03;;;;;;;2.70;1.90;;;20.30;52.80;;;;;;5073536;28;20226;-36
2022/09/27 10:34:36;;;;;;;1.88;1.58;;;20.30;52.70;;;;;;5074157;28;20205;-35
2022/09/27 10:37:18;;;;;;;2.45;1.77;;;20.30;52.80;;;;;;5073235;28;20221;-35
2022/09/27 10:39:49;;;;;;;2.58;1.95;;;20.20;52.70;;;;;;5073776;28;20199;-35
2022/09/27 10:42:34;;;;;;;2.35;1.73;;;20.20;52.70;;;;;;5073721;28;20219;-36
2022/09/27 10:45:28;;;;;;;2.67;2.10;;;20.20;52.80;;;;;;5088189;28;20629;-35
2022/09/27 10:47:59;;;;;;;2.95;1.98;;;20.10;52.70;;;;;;5085869;28;20212;-35
2022/09/27 10:50:34;;;;;;;3.13;2.10;;;20.10;52.80;;;;;;5094223;28;20590;-35
2022/09/27 10:53:07;;;;;;;2.97;2.03;;;20.10;52.80;;;;;;5093736;28;20232;-35
2022/09/27 10:55:39;;;;;;;2.15;1.85;;;20.00;52.90;;;;;;5093273;28;20678;-40
2022/09/27 10:58:19;;;;;;;3.00;1.80;;;20.00;52.90;;;;;;5094261;28;20201;-36
2022/09/27 11:01:02;;;;;;;2.03;1.60;;;20.00;52.90;;;;;;5093127;28;20213;-39
2022/09/27 11:03:34;;;;;;;2.63;1.92;;;20.00;52.90;;;;;;5093629;28;20190;-42
2022/09/27 11:06:28;;;;;;;2.83;2.22;;;20.00;52.90;;;;;;5093559;28;20237;-35
2022/09/27 11:09:12;;;;;;;2.10;1.80;;;20.00;52.90;;;;;;5074107;28;20253;-35
2022/09/27 11:11:44;;;;;;;2.20;1.90;;;20.00;52.90;;;;;;5073028;28;20377;-35
2022/09/27 11:14:22;;;;;;;2.55;1.98;;;19.90;52.80;;;;;;5073244;28;20199;-35
2022/09/27 11:17:10;;;;;;;2.53;1.95;;;19.90;52.90;;;;;;5074993;28;20565;-35
2022/09/27 11:20:05;;;;;;;2.13;1.88;;;19.80;52.90;;;;;;5074853;28;20222;-35
2022/09/27 11:22:59;;;;;;;2.05;1.85;;;19.80;53.00;;;;;;5073404;28;20191;-35
2022/09/27 11:25:38;;;;;;;2.53;2.10;;;19.80;53.00;;;;;;5072865;28;20222;-35
2022/09/27 11:28:22;;;;;;;2.10;1.70;;;19.70;53.00;;;;;;5071683;28;20226;-37
2022/09/27 11:31:03;;;;;;;2.47;1.80;;;19.70;53.10;;;;;;5072170;28;20218;-35
2022/09/27 11:33:57;;;;;;;3.63;1.92;;;19.70;53.00;;;;;;5071940;28;20240;-38
2022/09/27 11:36:42;;;;;;;2.15;1.77;;;19.70;53.00;;;;;;5081525;28;20642;-38
2022/09/27 11:39:18;;;;;;;1.95;1.80;;;19.70;53.00;;;;;;5091950;28;20197;-39
2022/09/27 11:42:06;;;;;;;2.38;1.90;;;19.70;53.00;;;;;;5091715;28;20218;-40
2022/09/27 11:44:52;;;;;;;2.58;1.60;;;19.70;53.10;;;;;;5092307;28;20194;-35
2022/09/27 11:47:32;;;;;;;3.08;1.83;;;19.60;53.00;;;;;;5082183;28;20236;-36
2022/09/27 11:50:26;;;;;;;3.33;1.85;;;19.60;53.10;;;;;;5071593;28;20264;-36
2022/09/27 11:53:11;;;;;;;2.28;2.00;;;19.60;53.10;;;;;;5071162;28;20559;-36
2022/09/27 11:55:50;;;;;;;2.05;1.85;;;19.50;53.10;;;;;;5071406;28;20209;-35
2022/09/27 11:58:32;;;;;;;2.13;1.85;;;19.50;53.20;;;;;;5071645;28;20199;-37
2022/09/27 12:01:10;;;;;;;2.75;1.80;;;19.50;53.20;;;;;;5071270;28;20219;-36
2022/09/27 12:04:06;;;;;;;1.67;1.58;;;19.50;53.20;;;;;;5071214;28;20186;-35
2022/09/27 12:06:49;;;;;;;1.58;1.48;;;19.50;53.20;;;;;;5071185;28;20219;-37
2022/09/27 12:09:23;;;;;;;1.85;1.65;;;19.50;53.20;;;;;;5070881;28;20563;-35
2022/09/27 12:12:00;;;;;;;2.45;2.00;;;19.50;53.20;;;;;;5071052;28;20214;-35
2022/09/27 12:14:36;;;;;;;1.67;1.52;;;19.50;53.10;;;;;;5071160;28;20198;-35
2022/09/27 12:17:13;;;;;;;2.38;1.90;;;19.40;53.10;;;;;;5071478;28;20194;-38
2022/09/27 12:19:49;;;;;;;1.60;1.40;;;19.40;53.20;;;;;;5071408;28;20195;-38
2022/09/27 12:22:27;;;;;;;1.98;1.70;;;19.30;53.20;;;;;;5070584;28;20218;-40
2022/09/27 12:24:58;;;;;;;2.72;1.88;;;19.30;53.20;;;;;;5071071;28;20236;-35
2022/09/27 12:27:37;;;;;;;2.22;1.80;;;19.30;53.30;;;;;;5070778;28;20222;-35
2022/09/27 12:30:08;;;;;;;2.05;1.77;;;19.30;53.30;;;;;;5070722;28;20198;-36
2022/09/27 12:32:46;;;;;;;2.00;1.80;;;19.30;53.30;;;;;;5070640;28;20195;-35
2022/09/27 12:35:21;;;;;;;2.85;1.80;;;19.30;53.30;;;;;;5070993;28;20194;-35
2022/09/27 12:38:00;;;;;;;2.05;1.67;;;19.30;53.30;;;;;;5070623;28;20282;-37
2022/09/27 12:40:34;;;;;;;1.85;1.48;;;19.30;53.30;;;;;;5070556;28;20226;-35
2022/09/27 12:43:09;;;;;;;2.15;1.42;;;19.30;53.30;;;;;;5070893;28;20199;-35
2022/09/27 12:45:47;;;;;;;1.67;1.33;;;19.20;53.20;;;;;;5070556;28;20206;-36
2022/09/27 12:48:25;;;;;;;1.83;1.58;;;19.20;53.20;;;;;;5070333;28;20191;-38
2022/09/27 12:50:59;;;;;;;2.05;1.70;;;19.20;53.20;;;;;;5070182;28;20249;-39
2022/09/27 12:53:39;;;;;;;1.75;1.63;;;19.10;53.30;;;;;;5070655;28;20201;-35
2022/09/27 12:56:32;;;;;;;2.25;1.65;;;19.10;53.30;;;;;;5070478;28;20202;-35
2022/09/27 12:59:35;;;;;;;2.55;1.60;;;19.10;53.30;;;;;;5070504;28;20228;-35
2022/09/27 13:03:04;;;;;;;1.83;1.67;;;19.10;53.30;;;;;;5070414;28;20215;-39
2022/09/27 13:05:52;;;;;;;2.10;1.70;;;19.10;53.30;;;;;;5048572;28;20198;-36
2022/09/27 13:08:37;;;;;;;1.83;1.60;;;19.10;53.30;;;;;;5069727;28;20205;-35
2022/09/27 13:11:17;;;;;;;2.15;1.55;;;19.10;53.30;;;;;;5070200;28;20221;-38
2022/09/27 13:13:48;;;;;;;2.10;1.90;;;19.10;53.30;;;;;;5069862;28;20199;-35
2022/09/27 13:16:19;;;;;;;1.63;1.52;;;19.00;53.30;;;;;;5085602;28;20190;-36
2022/09/27 13:19:02;;;;;;;2.00;1.70;;;19.00;53.30;;;;;;5090496;28;20688;-35
2022/09/27 13:21:58;;;;;;;1.73;1.40;;;19.00;53.30;;;;;;5089754;28;20394;-37
2022/09/27 13:25:00;;;;;;;1.85;1.50;;;19.00;53.40;;;;;;5073674;28;20186;-37
2022/09/27 13:27:42;;;;;;;2.42;1.60;;;18.90;53.40;;;;;;5026883;28;20249;-35
2022/09/27 13:30:48;;;;;;;1.73;1.63;;;18.90;53.40;;;;;;5083065;28;20581;-35
2022/09/27 13:33:33;;;;;;;1.88;1.63;;;18.90;53.40;;;;;;5090365;28;20197;-35
2022/09/27 13:36:27;;;;;;;1.60;1.40;;;18.90;53.30;;;;;;5088988;28;20251;-39